createdAt,value
2016-05-15T00:00:32.483Z,0
2016-05-15T00:01:32.502Z,0
2016-05-15T00:02:32.535Z,0
2016-05-15T00:03:32.430Z,0
2016-05-15T00:04:32.433Z,0
2016-05-15T00:05:32.451Z,0
2016-05-15T00:06:32.610Z,0
2016-05-15T00:07:32.643Z,0
2016-05-15T00:08:32.661Z,0
2016-05-15T00:09:32.679Z,0
2016-05-15T00:10:32.699Z,0
2016-05-15T00:11:32.717Z,0
2016-05-15T00:12:32.735Z,0
2016-05-15T00:13:32.768Z,0
2016-05-15T00:14:32.787Z,0
2016-05-15T00:15:32.806Z,0
2016-05-15T00:16:32.823Z,0
2016-05-15T00:17:32.858Z,0
2016-05-15T00:18:33.032Z,0
2016-05-15T00:19:32.738Z,0
2016-05-15T00:20:32.756Z,0
2016-05-15T00:21:32.931Z,0
2016-05-15T00:22:32.949Z,0
2016-05-15T00:23:32.968Z,0
2016-05-15T00:24:32.830Z,0
2016-05-15T00:25:33.005Z,0
2016-05-15T00:26:33.022Z,0
2016-05-15T00:27:33.056Z,0
2016-05-15T00:28:33.105Z,0
2016-05-15T00:29:33.030Z,0
2016-05-15T00:30:33.236Z,0
2016-05-15T00:31:32.896Z,0
2016-05-15T00:32:33.008Z,0
2016-05-15T00:33:33.182Z,0
2016-05-15T00:34:36.075Z,0
2016-05-15T00:35:33.202Z,0
2016-05-15T00:36:33.221Z,0
2016-05-15T00:37:33.099Z,0
2016-05-15T00:38:33.101Z,0
2016-05-15T00:39:33.135Z,0
2016-05-15T00:40:33.326Z,0
2016-05-15T00:41:33.328Z,0
2016-05-15T00:42:33.190Z,0
2016-05-15T00:43:33.365Z,0
2016-05-15T00:44:33.384Z,0
2016-05-15T00:45:33.104Z,0
2016-05-15T00:46:33.420Z,0
2016-05-15T00:47:33.298Z,0
2016-05-15T00:48:33.347Z,0
2016-05-15T00:49:33.570Z,0
2016-05-15T00:50:33.509Z,0
2016-05-15T00:51:33.543Z,0
2016-05-15T00:52:33.545Z,0
2016-05-15T00:53:33.423Z,0
2016-05-15T00:54:33.582Z,0
2016-05-15T00:55:33.600Z,0
2016-05-15T00:56:33.478Z,0
2016-05-15T00:57:33.512Z,0
2016-05-15T00:58:33.671Z,0
2016-05-15T00:59:33.549Z,0
2016-05-15T01:00:33.708Z,0
2016-05-15T01:01:33.741Z,0
2016-05-15T01:02:33.775Z,0
2016-05-15T01:03:49.950Z,0
2016-05-15T01:04:34.110Z,0
2016-05-15T01:05:33.815Z,0
2016-05-15T01:06:33.849Z,0
2016-05-15T01:07:33.711Z,0
2016-05-15T01:08:33.885Z,0
2016-05-15T01:09:33.904Z,0
2016-05-15T01:10:33.922Z,0
2016-05-15T01:11:33.800Z,0
2016-05-15T01:12:33.974Z,0
2016-05-15T01:13:33.837Z,0
2016-05-15T01:14:33.854Z,0
2016-05-15T01:15:34.029Z,0
2016-05-15T01:16:34.048Z,0
2016-05-15T01:17:34.065Z,0
2016-05-15T01:18:34.131Z,0
2016-05-15T01:19:34.118Z,0
2016-05-15T01:20:33.980Z,0
2016-05-15T01:21:34.140Z,0
2016-05-15T01:22:33.861Z,0
2016-05-15T01:23:34.192Z,0
2016-05-15T01:24:34.334Z,0
2016-05-15T01:25:34.244Z,0
2016-05-15T01:26:34.262Z,0
2016-05-15T01:27:34.280Z,0
2016-05-15T01:28:34.392Z,0
2016-05-15T01:29:34.317Z,0
2016-05-15T01:30:34.335Z,0
2016-05-15T01:31:34.369Z,0
2016-05-15T01:32:34.372Z,0
2016-05-15T01:33:34.813Z,0
2016-05-15T01:34:34.424Z,0
2016-05-15T01:35:34.427Z,0
2016-05-15T01:36:34.461Z,0
2016-05-15T01:37:34.479Z,0
2016-05-15T01:38:34.185Z,0
2016-05-15T01:39:34.516Z,0
2016-05-15T01:40:34.534Z,0
2016-05-15T01:41:34.412Z,0
2016-05-15T01:42:34.570Z,0
2016-05-15T01:43:34.604Z,0
2016-05-15T01:44:34.623Z,0
2016-05-15T01:45:34.484Z,0
2016-05-15T01:46:34.503Z,0
2016-05-15T01:47:34.678Z,0
2016-05-15T01:48:35.274Z,0
2016-05-15T01:49:35.418Z,0
2016-05-15T01:50:34.748Z,0
2016-05-15T01:51:34.611Z,0
2016-05-15T01:52:34.784Z,0
2016-05-15T01:53:34.804Z,0
2016-05-15T01:54:34.806Z,0
2016-05-15T01:55:34.684Z,0
2016-05-15T01:56:34.858Z,0
2016-05-15T01:57:34.752Z,0
2016-05-15T01:58:34.770Z,0
2016-05-15T01:59:34.928Z,0
2016-05-15T02:00:34.791Z,0
2016-05-15T02:01:34.950Z,0
2016-05-15T02:02:34.984Z,0
2016-05-15T02:03:35.018Z,0
2016-05-15T02:04:34.864Z,0
2016-05-15T02:05:34.882Z,0
2016-05-15T02:06:35.104Z,0
2016-05-15T02:07:35.091Z,0
2016-05-15T02:08:34.952Z,0
2016-05-15T02:09:34.956Z,0
2016-05-15T02:10:34.974Z,0
2016-05-15T02:11:35.446Z,0
2016-05-15T02:12:35.182Z,0
2016-05-15T02:13:35.202Z,0
2016-05-15T02:14:34.923Z,0
2016-05-15T02:15:35.268Z,0
2016-05-15T02:16:35.257Z,0
2016-05-15T02:17:35.274Z,0
2016-05-15T02:18:35.323Z,0
2016-05-15T02:19:35.187Z,0
2016-05-15T02:20:35.345Z,0
2016-05-15T02:21:35.363Z,0
2016-05-15T02:22:35.506Z,0
2016-05-15T02:23:35.400Z,0
2016-05-15T02:24:35.434Z,0
2016-05-15T02:25:35.358Z,0
2016-05-15T02:26:35.455Z,0
2016-05-15T02:27:35.489Z,0
2016-05-15T02:28:35.507Z,0
2016-05-15T02:29:35.525Z,0
2016-05-15T02:30:35.544Z,0
2016-05-15T02:31:35.593Z,0
2016-05-15T02:32:35.581Z,0
2016-05-15T02:33:35.708Z,0
2016-05-15T02:34:35.632Z,0
2016-05-15T02:35:35.479Z,0
2016-05-15T02:36:35.653Z,0
2016-05-15T02:37:35.688Z,0
2016-05-15T02:38:35.705Z,0
2016-05-15T02:39:35.724Z,0
2016-05-15T02:40:35.743Z,0
2016-05-15T02:41:35.448Z,0
2016-05-15T02:42:35.623Z,0
2016-05-15T02:43:35.657Z,0
2016-05-15T02:44:35.832Z,0
2016-05-15T02:45:35.834Z,0
2016-05-15T02:46:35.868Z,0
2016-05-15T02:47:35.714Z,0
2016-05-15T02:48:35.904Z,0
2016-05-15T02:49:35.985Z,0
2016-05-15T02:50:35.940Z,0
2016-05-15T02:51:35.960Z,0
2016-05-15T02:52:35.978Z,0
2016-05-15T02:53:35.995Z,0
2016-05-15T02:54:35.873Z,0
2016-05-15T02:55:36.095Z,0
2016-05-15T02:56:35.911Z,0
2016-05-15T02:57:35.756Z,0
2016-05-15T02:58:36.088Z,0
2016-05-15T02:59:36.106Z,0
2016-05-15T03:00:36.139Z,0
2016-05-15T03:01:36.002Z,0
2016-05-15T03:02:36.192Z,0
2016-05-15T03:03:36.054Z,0
2016-05-15T03:04:36.213Z,0
2016-05-15T03:05:36.231Z,4
2016-05-15T03:06:36.250Z,4
2016-05-15T03:07:36.283Z,4
2016-05-15T03:08:36.318Z,4
2016-05-15T03:09:36.164Z,0
2016-05-15T03:10:36.354Z,0
2016-05-15T03:11:36.372Z,4
2016-05-15T03:12:36.219Z,0
2016-05-15T03:13:36.394Z,8
2016-05-15T03:14:36.412Z,4
2016-05-15T03:15:36.430Z,4
2016-05-15T03:16:36.449Z,8
2016-05-15T03:17:36.482Z,8
2016-05-15T03:18:36.657Z,8
2016-05-15T03:19:36.378Z,8
2016-05-15T03:20:36.538Z,8
2016-05-15T03:21:36.556Z,12
2016-05-15T03:22:36.589Z,12
2016-05-15T03:23:36.609Z,8
2016-05-15T03:24:36.611Z,8
2016-05-15T03:25:36.488Z,12
2016-05-15T03:26:36.507Z,16
2016-05-15T03:27:36.665Z,16
2016-05-15T03:28:36.543Z,16
2016-05-15T03:29:36.545Z,16
2016-05-15T03:30:36.720Z,20
2016-05-15T03:31:36.770Z,16
2016-05-15T03:32:36.616Z,20
2016-05-15T03:33:36.635Z,20
2016-05-15T03:34:36.934Z,20
2016-05-15T03:35:36.828Z,24
2016-05-15T03:36:36.846Z,24
2016-05-15T03:37:36.567Z,28
2016-05-15T03:38:36.883Z,28
2016-05-15T03:39:36.760Z,28
2016-05-15T03:40:36.763Z,28
2016-05-15T03:41:36.953Z,28
2016-05-15T03:42:36.972Z,32
2016-05-15T03:43:36.833Z,32
2016-05-15T03:44:37.007Z,36
2016-05-15T03:45:37.089Z,32
2016-05-15T03:46:36.732Z,32
2016-05-15T03:47:37.062Z,28
2016-05-15T03:48:37.504Z,28
2016-05-15T03:49:37.335Z,28
2016-05-15T03:50:36.962Z,28
2016-05-15T03:51:37.151Z,28
2016-05-15T03:52:37.015Z,28
2016-05-15T03:53:37.189Z,28
2016-05-15T03:54:37.050Z,32
2016-05-15T03:55:37.226Z,28
2016-05-15T03:56:37.243Z,32
2016-05-15T03:57:37.278Z,36
2016-05-15T03:58:36.983Z,36
2016-05-15T03:59:37.298Z,36
2016-05-15T04:00:37.176Z,40
2016-05-15T04:01:37.350Z,48
2016-05-15T04:02:37.213Z,48
2016-05-15T04:03:37.403Z,48
2016-05-15T04:04:37.719Z,48
2016-05-15T04:05:37.267Z,48
2016-05-15T04:06:37.442Z,56
2016-05-15T04:07:37.477Z,56
2016-05-15T04:08:37.479Z,52
2016-05-15T04:09:37.513Z,48
2016-05-15T04:10:37.360Z,44
2016-05-15T04:11:37.550Z,44
2016-05-15T04:12:37.568Z,44
2016-05-15T04:13:37.429Z,44
2016-05-15T04:14:37.449Z,44
2016-05-15T04:15:37.466Z,44
2016-05-15T04:16:37.640Z,48
2016-05-15T04:17:37.660Z,52
2016-05-15T04:18:37.693Z,60
2016-05-15T04:19:37.649Z,60
2016-05-15T04:20:37.558Z,60
2016-05-15T04:21:37.608Z,60
2016-05-15T04:22:37.751Z,60
2016-05-15T04:23:37.815Z,72
2016-05-15T04:24:37.491Z,76
2016-05-15T04:25:37.665Z,80
2016-05-15T04:26:37.840Z,84
2016-05-15T04:27:37.858Z,84
2016-05-15T04:28:37.876Z,88
2016-05-15T04:29:37.895Z,96
2016-05-15T04:30:37.928Z,88
2016-05-15T04:31:37.931Z,100
2016-05-15T04:32:37.950Z,96
2016-05-15T04:33:37.984Z,100
2016-05-15T04:34:38.267Z,96
2016-05-15T04:35:37.864Z,84
2016-05-15T04:36:38.055Z,88
2016-05-15T04:37:37.900Z,84
2016-05-15T04:38:37.919Z,84
2016-05-15T04:39:38.109Z,80
2016-05-15T04:40:37.971Z,84
2016-05-15T04:41:38.130Z,92
2016-05-15T04:42:38.149Z,84
2016-05-15T04:43:38.182Z,92
2016-05-15T04:44:38.185Z,88
2016-05-15T04:45:38.046Z,92
2016-05-15T04:46:38.082Z,92
2016-05-15T04:47:38.099Z,100
2016-05-15T04:48:38.274Z,88
2016-05-15T04:49:38.699Z,88
2016-05-15T04:50:38.295Z,84
2016-05-15T04:51:38.173Z,88
2016-05-15T04:52:38.363Z,100
2016-05-15T04:53:38.428Z,104
2016-05-15T04:54:38.103Z,108
2016-05-15T04:55:38.262Z,100
2016-05-15T04:56:38.421Z,88
2016-05-15T04:57:38.298Z,88
2016-05-15T04:58:38.473Z,92
2016-05-15T04:59:38.334Z,96
2016-05-15T05:00:38.509Z,104
2016-05-15T05:01:38.356Z,108
2016-05-15T05:02:38.545Z,104
2016-05-15T05:03:38.565Z,116
2016-05-15T05:04:38.473Z,120
2016-05-15T05:05:38.600Z,128
2016-05-15T05:06:38.620Z,116
2016-05-15T05:07:38.669Z,112
2016-05-15T05:08:38.671Z,116
2016-05-15T05:09:38.706Z,116
2016-05-15T05:10:38.708Z,112
2016-05-15T05:11:38.742Z,116
2016-05-15T05:12:38.760Z,116
2016-05-15T05:13:38.794Z,116
2016-05-15T05:14:38.625Z,108
2016-05-15T05:15:38.799Z,128
2016-05-15T05:16:38.662Z,132
2016-05-15T05:17:38.836Z,124
2016-05-15T05:18:38.855Z,120
2016-05-15T05:19:38.779Z,132
2016-05-15T05:20:38.907Z,128
2016-05-15T05:21:38.769Z,140
2016-05-15T05:22:38.943Z,140
2016-05-15T05:23:38.946Z,136
2016-05-15T05:24:38.808Z,140
2016-05-15T05:25:38.999Z,152
2016-05-15T05:26:39.017Z,152
2016-05-15T05:27:39.034Z,148
2016-05-15T05:28:39.070Z,164
2016-05-15T05:29:39.087Z,160
2016-05-15T05:30:39.105Z,176
2016-05-15T05:31:39.123Z,188
2016-05-15T05:32:39.127Z,184
2016-05-15T05:33:38.989Z,204
2016-05-15T05:34:39.319Z,208
2016-05-15T05:35:39.198Z,256
2016-05-15T05:36:39.216Z,264
2016-05-15T05:37:39.233Z,220
2016-05-15T05:38:39.252Z,232
2016-05-15T05:39:39.114Z,272
2016-05-15T05:40:39.289Z,212
2016-05-15T05:41:39.150Z,220
2016-05-15T05:42:39.325Z,268
2016-05-15T05:43:39.344Z,212
2016-05-15T05:44:39.221Z,280
2016-05-15T05:45:39.396Z,328
2016-05-15T05:46:39.414Z,364
2016-05-15T05:47:39.121Z,280
2016-05-15T05:48:39.466Z,304
2016-05-15T05:49:39.735Z,296
2016-05-15T05:50:39.332Z,304
2016-05-15T05:51:39.365Z,392
2016-05-15T05:52:39.368Z,388
2016-05-15T05:53:39.543Z,364
2016-05-15T05:54:39.560Z,336
2016-05-15T05:55:39.423Z,296
2016-05-15T05:56:39.473Z,308
2016-05-15T05:57:39.615Z,304
2016-05-15T05:58:39.650Z,304
2016-05-15T05:59:39.667Z,260
2016-05-15T06:00:39.687Z,328
2016-05-15T06:01:39.704Z,264
2016-05-15T06:02:39.723Z,272
2016-05-15T06:03:39.742Z,312
2016-05-15T06:04:39.791Z,316
2016-05-15T06:05:39.778Z,288
2016-05-15T06:06:39.640Z,308
2016-05-15T06:07:39.814Z,328
2016-05-15T06:08:39.833Z,340
2016-05-15T06:09:39.866Z,348
2016-05-15T06:10:39.886Z,332
2016-05-15T06:11:39.919Z,300
2016-05-15T06:12:39.922Z,312
2016-05-15T06:13:39.940Z,324
2016-05-15T06:14:39.958Z,308
2016-05-15T06:15:39.992Z,324
2016-05-15T06:16:39.994Z,304
2016-05-15T06:17:40.045Z,316
2016-05-15T06:18:39.875Z,344
2016-05-15T06:19:40.362Z,344
2016-05-15T06:20:40.069Z,324
2016-05-15T06:21:40.087Z,296
2016-05-15T06:22:40.104Z,360
2016-05-15T06:23:40.138Z,336
2016-05-15T06:24:40.141Z,356
2016-05-15T06:25:40.176Z,424
2016-05-15T06:26:40.193Z,452
2016-05-15T06:27:40.228Z,484
2016-05-15T06:28:40.231Z,476
2016-05-15T06:29:40.248Z,400
2016-05-15T06:30:40.282Z,428
2016-05-15T06:31:40.285Z,448
2016-05-15T06:32:40.304Z,440
2016-05-15T06:33:40.322Z,416
2016-05-15T06:34:40.387Z,452
2016-05-15T06:35:40.218Z,452
2016-05-15T06:36:40.392Z,408
2016-05-15T06:37:40.255Z,392
2016-05-15T06:38:40.444Z,392
2016-05-15T06:39:40.448Z,396
2016-05-15T06:40:40.466Z,384
2016-05-15T06:41:40.499Z,356
2016-05-15T06:42:40.519Z,384
2016-05-15T06:43:40.521Z,412
2016-05-15T06:44:40.399Z,400
2016-05-15T06:45:40.557Z,388
2016-05-15T06:46:40.592Z,408
2016-05-15T06:47:40.610Z,352
2016-05-15T06:48:40.627Z,408
2016-05-15T06:49:40.522Z,368
2016-05-15T06:50:40.665Z,392
2016-05-15T06:51:40.667Z,384
2016-05-15T06:52:40.701Z,412
2016-05-15T06:53:40.563Z,372
2016-05-15T06:54:40.754Z,400
2016-05-15T06:55:40.615Z,444
2016-05-15T06:56:40.790Z,412
2016-05-15T06:57:40.809Z,352
2016-05-15T06:58:40.826Z,368
2016-05-15T06:59:40.829Z,520
2016-05-15T07:00:40.879Z,504
2016-05-15T07:01:40.898Z,552
2016-05-15T07:02:40.915Z,516
2016-05-15T07:03:40.918Z,604
2016-05-15T07:04:41.156Z,560
2016-05-15T07:05:40.798Z,488
2016-05-15T07:06:41.003Z,484
2016-05-15T07:07:40.851Z,536
2016-05-15T07:08:40.853Z,536
2016-05-15T07:09:41.044Z,616
2016-05-15T07:10:41.061Z,472
2016-05-15T07:11:41.081Z,572
2016-05-15T07:12:41.099Z,492
2016-05-15T07:13:41.116Z,512
2016-05-15T07:14:40.980Z,564
2016-05-15T07:15:41.013Z,532
2016-05-15T07:16:41.188Z,692
2016-05-15T07:17:41.206Z,728
2016-05-15T07:18:41.208Z,1040
2016-05-15T07:19:41.258Z,1264
2016-05-15T07:20:41.260Z,1232
2016-05-15T07:21:41.263Z,1516
2016-05-15T07:22:41.157Z,1448
2016-05-15T07:23:41.175Z,1184
2016-05-15T07:24:41.318Z,1172
2016-05-15T07:25:41.352Z,1388
2016-05-15T07:26:41.387Z,1416
2016-05-15T07:27:41.389Z,1180
2016-05-15T07:28:41.329Z,928
2016-05-15T07:29:41.441Z,800
2016-05-15T07:30:41.444Z,1156
2016-05-15T07:31:41.321Z,1264
2016-05-15T07:32:41.496Z,964
2016-05-15T07:33:41.515Z,744
2016-05-15T07:34:42.079Z,780
2016-05-15T07:35:41.566Z,532
2016-05-15T07:36:41.570Z,640
2016-05-15T07:37:41.275Z,580
2016-05-15T07:38:41.626Z,748
2016-05-15T07:39:41.547Z,708
2016-05-15T07:40:41.766Z,896
2016-05-15T07:41:41.827Z,736
2016-05-15T07:42:41.888Z,620
2016-05-15T07:43:41.938Z,620
2016-05-15T07:44:41.987Z,612
2016-05-15T07:45:42.006Z,468
2016-05-15T07:46:41.915Z,536
2016-05-15T07:47:41.948Z,936
2016-05-15T07:48:42.103Z,1056
2016-05-15T07:49:42.048Z,712
2016-05-15T07:50:42.010Z,732
2016-05-15T07:51:42.768Z,524
2016-05-15T07:52:42.214Z,472
2016-05-15T07:53:47.408Z,524
2016-05-15T07:54:42.130Z,452
2016-05-15T07:55:42.292Z,332
2016-05-15T07:56:42.311Z,512
2016-05-15T07:57:42.332Z,1088
2016-05-15T07:58:42.351Z,1576
2016-05-15T07:59:42.215Z,1264
2016-05-15T08:00:42.249Z,644
2016-05-15T08:01:42.252Z,504
2016-05-15T08:02:42.272Z,412
2016-05-15T08:03:42.306Z,340
2016-05-15T08:04:42.684Z,448
2016-05-15T08:05:42.515Z,612
2016-05-15T08:06:42.519Z,588
2016-05-15T08:07:42.381Z,508
2016-05-15T08:08:42.415Z,544
2016-05-15T08:09:42.575Z,548
2016-05-15T08:10:42.624Z,624
2016-05-15T08:11:42.610Z,548
2016-05-15T08:12:42.629Z,444
2016-05-15T08:13:42.647Z,488
2016-05-15T08:14:42.525Z,560
2016-05-15T08:15:42.543Z,548
2016-05-15T08:16:42.718Z,728
2016-05-15T08:17:42.737Z,1036
2016-05-15T08:18:42.754Z,992
2016-05-15T08:19:42.632Z,964
2016-05-15T08:20:42.807Z,1304
2016-05-15T08:21:42.841Z,1568
2016-05-15T08:22:42.843Z,1716
2016-05-15T08:23:42.862Z,1384
2016-05-15T08:24:42.865Z,1040
2016-05-15T08:25:42.742Z,892
2016-05-15T08:26:42.776Z,1000
2016-05-15T08:27:42.934Z,1096
2016-05-15T08:28:42.954Z,1120
2016-05-15T08:29:42.987Z,1076
2016-05-15T08:30:42.833Z,956
2016-05-15T08:31:43.008Z,920
2016-05-15T08:32:43.042Z,1004
2016-05-15T08:33:43.061Z,1128
2016-05-15T08:34:44.032Z,1204
2016-05-15T08:35:43.098Z,1196
2016-05-15T08:36:42.959Z,1160
2016-05-15T08:37:42.977Z,1336
2016-05-15T08:38:43.012Z,1336
2016-05-15T08:39:43.014Z,1940
2016-05-15T08:40:43.063Z,2500
2016-05-15T08:41:43.066Z,2360
2016-05-15T08:42:43.100Z,2296
2016-05-15T08:43:43.260Z,2012
2016-05-15T08:44:43.293Z,1496
2016-05-15T08:45:43.140Z,1384
2016-05-15T08:46:43.330Z,1272
2016-05-15T08:47:43.348Z,1312
2016-05-15T08:48:43.366Z,1944
2016-05-15T08:49:43.573Z,2004
2016-05-15T08:50:43.247Z,1780
2016-05-15T08:51:43.437Z,1740
2016-05-15T08:52:43.440Z,1612
2016-05-15T08:53:43.458Z,1360
2016-05-15T08:54:43.492Z,1560
2016-05-15T08:55:43.510Z,1952
2016-05-15T08:56:43.373Z,2156
2016-05-15T08:57:43.547Z,1776
2016-05-15T08:58:43.409Z,1808
2016-05-15T08:59:43.428Z,1808
2016-05-15T09:00:43.602Z,1544
2016-05-15T09:01:43.636Z,1404
2016-05-15T09:02:43.654Z,1348
2016-05-15T09:03:43.672Z,1284
2016-05-15T09:04:43.582Z,1240
2016-05-15T09:05:43.725Z,1164
2016-05-15T09:06:43.727Z,1108
2016-05-15T09:07:43.761Z,864
2016-05-15T09:08:43.482Z,1104
2016-05-15T09:09:43.782Z,1416
2016-05-15T09:10:43.817Z,1752
2016-05-15T09:11:43.835Z,1624
2016-05-15T09:12:43.852Z,1620
2016-05-15T09:13:43.872Z,1752
2016-05-15T09:14:43.890Z,1840
2016-05-15T09:15:43.907Z,2432
2016-05-15T09:16:43.926Z,2408
2016-05-15T09:17:43.789Z,2340
2016-05-15T09:18:43.979Z,2908
2016-05-15T09:19:43.903Z,2980
2016-05-15T09:20:44.015Z,2408
2016-05-15T09:21:44.048Z,2232
2016-05-15T09:22:44.068Z,2296
2016-05-15T09:23:44.085Z,2428
2016-05-15T09:24:44.104Z,2592
2016-05-15T09:25:44.123Z,2872
2016-05-15T09:26:44.140Z,3064
2016-05-15T09:27:44.159Z,3152
2016-05-15T09:28:43.881Z,3208
2016-05-15T09:29:44.055Z,2972
2016-05-15T09:30:44.229Z,2564
2016-05-15T09:31:44.107Z,2404
2016-05-15T09:32:44.281Z,2048
2016-05-15T09:33:44.284Z,1932
2016-05-15T09:34:44.319Z,1980
2016-05-15T09:35:44.164Z,1516
2016-05-15T09:36:44.199Z,1608
2016-05-15T09:37:44.389Z,2364
2016-05-15T09:38:44.251Z,2072
2016-05-15T09:39:44.425Z,2224
2016-05-15T09:40:44.272Z,2684
2016-05-15T09:41:44.463Z,3136
2016-05-15T09:42:44.480Z,2108
2016-05-15T09:43:44.358Z,1448
2016-05-15T09:44:44.532Z,664
2016-05-15T09:45:44.552Z,452
2016-05-15T09:46:44.569Z,496
2016-05-15T09:47:44.588Z,776
2016-05-15T09:48:44.465Z,1032
2016-05-15T09:49:44.687Z,1464
2016-05-15T09:50:44.502Z,1424
2016-05-15T09:51:44.677Z,968
2016-05-15T09:52:44.554Z,1068
2016-05-15T09:53:44.713Z,1080
2016-05-15T09:54:44.434Z,1016
2016-05-15T09:55:44.750Z,1048
2016-05-15T09:56:44.784Z,1008
2016-05-15T09:57:44.801Z,1116
2016-05-15T09:58:44.837Z,1352
2016-05-15T09:59:44.839Z,1720
2016-05-15T10:00:44.857Z,2016
2016-05-15T10:01:44.891Z,2132
2016-05-15T10:02:44.909Z,2148
2016-05-15T10:03:44.928Z,2744
2016-05-15T10:04:45.055Z,3004
2016-05-15T10:05:44.964Z,2788
2016-05-15T10:06:44.998Z,2808
2016-05-15T10:07:45.017Z,2612
2016-05-15T10:08:45.035Z,2040
2016-05-15T10:09:45.052Z,1896
2016-05-15T10:10:45.086Z,2140
2016-05-15T10:11:45.106Z,2096
2016-05-15T10:12:45.124Z,2072
2016-05-15T10:13:45.141Z,1464
2016-05-15T10:14:45.177Z,1652
2016-05-15T10:15:44.882Z,944
2016-05-15T10:16:45.213Z,968
2016-05-15T10:17:45.230Z,1556
2016-05-15T10:18:45.094Z,1560
2016-05-15T10:19:45.283Z,1588
2016-05-15T10:20:45.146Z,1660
2016-05-15T10:21:45.648Z,1736
2016-05-15T10:22:45.337Z,1844
2016-05-15T10:23:45.357Z,1916
2016-05-15T10:24:45.218Z,1968
2016-05-15T10:25:45.252Z,1944
2016-05-15T10:26:45.426Z,2004
2016-05-15T10:27:45.304Z,1884
2016-05-15T10:28:45.526Z,2132
2016-05-15T10:29:45.357Z,2804
2016-05-15T10:30:45.640Z,4024
2016-05-15T10:31:45.597Z,4692
2016-05-15T10:32:45.568Z,4620
2016-05-15T10:33:45.587Z,4664
2016-05-15T10:34:45.323Z,3328
2016-05-15T10:35:45.622Z,2516
2016-05-15T10:36:45.657Z,2128
2016-05-15T10:37:45.676Z,1812
2016-05-15T10:38:45.537Z,1740
2016-05-15T10:39:45.711Z,1416
2016-05-15T10:40:45.747Z,1272
2016-05-15T10:41:45.764Z,1040
2016-05-15T10:42:45.783Z,916
2016-05-15T10:43:45.800Z,548
2016-05-15T10:44:45.835Z,464
2016-05-15T10:45:45.838Z,556
2016-05-15T10:46:45.872Z,596
2016-05-15T10:47:45.905Z,844
2016-05-15T10:48:45.939Z,1280
2016-05-15T10:49:45.801Z,1268
2016-05-15T10:50:45.961Z,1328
2016-05-15T10:51:45.979Z,1620
2016-05-15T10:52:46.012Z,2128
2016-05-15T10:53:46.046Z,3036
2016-05-15T10:54:46.064Z,3124
2016-05-15T10:55:45.912Z,4704
2016-05-15T10:56:46.085Z,4704
2016-05-15T10:57:46.104Z,4608
2016-05-15T10:58:46.153Z,3548
2016-05-15T10:59:46.173Z,2388
2016-05-15T11:00:46.034Z,1380
2016-05-15T11:01:46.224Z,512
2016-05-15T11:02:46.242Z,344
2016-05-15T11:03:46.246Z,320
2016-05-15T11:04:46.294Z,304
2016-05-15T11:05:45.985Z,264
2016-05-15T11:06:46.159Z,324
2016-05-15T11:07:46.178Z,396
2016-05-15T11:08:46.383Z,632
2016-05-15T11:09:46.246Z,1100
2016-05-15T11:10:46.436Z,1316
2016-05-15T11:11:46.283Z,1300
2016-05-15T11:12:46.300Z,1464
2016-05-15T11:13:46.506Z,1480
2016-05-15T11:14:46.508Z,1408
2016-05-15T11:15:46.387Z,2036
2016-05-15T11:16:46.405Z,2316
2016-05-15T11:17:46.611Z,1796
2016-05-15T11:18:46.457Z,1872
2016-05-15T11:19:47.319Z,1920
2016-05-15T11:20:46.650Z,1896
2016-05-15T11:21:46.668Z,1884
2016-05-15T11:22:46.530Z,1900
2016-05-15T11:24:07.205Z,1932
2016-05-15T11:24:46.582Z,1972
2016-05-15T11:25:46.617Z,2048
2016-05-15T11:26:46.791Z,2152
2016-05-15T11:27:46.809Z,2164
2016-05-15T11:28:46.828Z,2324
2016-05-15T11:29:46.862Z,2432
2016-05-15T11:30:46.724Z,1036
2016-05-15T11:31:46.898Z,2604
2016-05-15T11:32:46.917Z,2116
2016-05-15T11:33:46.951Z,2992
2016-05-15T11:34:47.454Z,3552
2016-05-15T11:35:46.987Z,3324
2016-05-15T11:36:47.022Z,2448
2016-05-15T11:37:46.867Z,2592
2016-05-15T11:38:47.058Z,3232
2016-05-15T11:39:47.076Z,3444
2016-05-15T11:40:47.111Z,2992
2016-05-15T11:41:47.144Z,2120
2016-05-15T11:42:47.428Z,3628
2016-05-15T11:43:46.868Z,1924
2016-05-15T11:44:47.044Z,2332
2016-05-15T11:45:47.233Z,3240
2016-05-15T11:46:47.252Z,4716
2016-05-15T11:47:47.269Z,4976
2016-05-15T11:48:47.147Z,4724
2016-05-15T11:49:47.696Z,3408
2016-05-15T11:50:47.185Z,3500
2016-05-15T11:51:47.374Z,3152
2016-05-15T11:52:47.252Z,3008
2016-05-15T11:53:47.410Z,3372
2016-05-15T11:54:48.210Z,2864
2016-05-15T11:55:47.478Z,1844
2016-05-15T11:56:47.529Z,1312
2016-05-15T11:57:47.500Z,1760
2016-05-15T11:58:47.393Z,2376
2016-05-15T11:59:47.411Z,2872
2016-05-15T12:00:47.586Z,2728
2016-05-15T12:01:47.464Z,2516
2016-05-15T12:02:47.638Z,2580
2016-05-15T12:03:47.657Z,3324
2016-05-15T12:04:47.378Z,3536
2016-05-15T12:05:47.709Z,4704
2016-05-15T12:06:47.727Z,4272
2016-05-15T12:07:47.589Z,3504
2016-05-15T12:08:47.795Z,3352
2016-05-15T12:09:47.501Z,3284
2016-05-15T12:10:47.519Z,3508
2016-05-15T12:11:47.694Z,3352
2016-05-15T12:12:47.869Z,4052
2016-05-15T12:13:47.903Z,3420
2016-05-15T12:14:47.936Z,1212
2016-05-15T12:15:47.798Z,540
2016-05-15T12:16:47.972Z,344
2016-05-15T12:17:47.991Z,292
2016-05-15T12:18:47.868Z,268
2016-05-15T12:19:48.543Z,256
2016-05-15T12:20:48.078Z,272
2016-05-15T12:21:48.096Z,292
2016-05-15T12:22:48.130Z,340
2016-05-15T12:23:48.148Z,324
2016-05-15T12:24:48.182Z,312
2016-05-15T12:25:48.215Z,312
2016-05-15T12:26:48.235Z,340
2016-05-15T12:27:48.252Z,296
2016-05-15T12:28:48.271Z,312
2016-05-15T12:29:48.304Z,336
2016-05-15T12:30:48.338Z,604
2016-05-15T12:31:48.341Z,660
2016-05-15T12:32:48.360Z,736
2016-05-15T12:33:48.393Z,824
2016-05-15T12:34:48.287Z,888
2016-05-15T12:35:48.289Z,1032
2016-05-15T12:36:48.495Z,940
2016-05-15T12:37:48.498Z,724
2016-05-15T12:38:48.376Z,600
2016-05-15T12:39:48.567Z,680
2016-05-15T12:40:48.428Z,940
2016-05-15T12:41:48.603Z,1448
2016-05-15T12:42:48.636Z,1636
2016-05-15T12:43:48.498Z,1780
2016-05-15T12:44:48.672Z,1384
2016-05-15T12:45:48.708Z,936
2016-05-15T12:46:48.725Z,836
2016-05-15T12:47:48.744Z,904
2016-05-15T12:48:48.606Z,984
2016-05-15T12:49:49.046Z,952
2016-05-15T12:50:48.830Z,1176
2016-05-15T12:51:48.863Z,1712
2016-05-15T12:52:48.882Z,2252
2016-05-15T12:53:48.900Z,2572
2016-05-15T12:54:48.919Z,2760
2016-05-15T12:55:48.937Z,2896
2016-05-15T12:56:48.987Z,3172
2016-05-15T12:57:49.005Z,2756
2016-05-15T12:58:48.868Z,2624
2016-05-15T12:59:49.041Z,2560
2016-05-15T13:00:49.076Z,2524
2016-05-15T13:01:49.093Z,2548
2016-05-15T13:02:48.987Z,2608
2016-05-15T13:03:49.145Z,2676
2016-05-15T13:04:49.477Z,2752
2016-05-15T13:05:49.198Z,2792
2016-05-15T13:06:49.076Z,2804
2016-05-15T13:07:49.250Z,2820
2016-05-15T13:08:49.284Z,2832
2016-05-15T13:09:49.130Z,2844
2016-05-15T13:10:49.320Z,2860
2016-05-15T13:11:49.340Z,2880
2016-05-15T13:12:49.358Z,2896
2016-05-15T13:13:49.392Z,2916
2016-05-15T13:14:49.410Z,2948
2016-05-15T13:15:49.444Z,2980
2016-05-15T13:16:49.462Z,2992
2016-05-15T13:17:49.340Z,3016
2016-05-15T13:18:49.530Z,3048
2016-05-15T13:19:49.549Z,3076
2016-05-15T13:20:49.566Z,3112
2016-05-15T13:21:49.585Z,3156
2016-05-15T13:22:49.635Z,3164
2016-05-15T13:23:49.668Z,3204
2016-05-15T13:24:49.516Z,3240
2016-05-15T13:25:49.690Z,3272
2016-05-15T13:26:49.567Z,3344
2016-05-15T13:27:49.741Z,3640
2016-05-15T13:28:49.604Z,4976
2016-05-15T13:29:49.793Z,7040
2016-05-15T13:30:49.813Z,6932
2016-05-15T13:31:49.831Z,5544
2016-05-15T13:32:49.724Z,3296
2016-05-15T13:33:49.898Z,1664
2016-05-15T13:34:49.901Z,752
2016-05-15T13:35:49.951Z,500
2016-05-15T13:36:49.969Z,412
2016-05-15T13:37:49.831Z,488
2016-05-15T13:38:50.037Z,696
2016-05-15T13:39:50.040Z,744
2016-05-15T13:40:50.089Z,576
2016-05-15T13:41:49.795Z,508
2016-05-15T13:42:49.985Z,444
2016-05-15T13:43:50.160Z,372
2016-05-15T13:44:50.022Z,308
2016-05-15T13:45:50.056Z,408
2016-05-15T13:46:50.231Z,640
2016-05-15T13:47:50.092Z,628
2016-05-15T13:48:50.127Z,676
2016-05-15T13:49:50.160Z,780
2016-05-15T13:50:50.647Z,932
2016-05-15T13:51:50.353Z,1176
2016-05-15T13:52:50.371Z,1560
2016-05-15T13:53:50.249Z,2572